sensor_id;sensor_type;location;lat;lon;timestamp;temperature;humidity
77829;DHT22;67019;51.034;3.728;2023-11-19T00:02:02;13.00;99.90
77829;DHT22;67019;51.034;3.728;2023-11-19T00:04:29;13.00;99.90
77829;DHT22;67019;51.034;3.728;2023-11-19T00:06:57;13.00;99.90
77829;DHT22;67019;51.034;3.728;2023-11-19T00:09:26;13.00;99.90
77829;DHT22;67019;51.034;3.728;2023-11-19T00:11:53;13.00;99.90
77829;DHT22;67019;51.034;3.728;2023-11-19T00:14:22;13.00;99.90
77829;DHT22;67019;51.034;3.728;2023-11-19T00:16:50;13.10;99.90
77829;DHT22;67019;51.034;3.728;2023-11-19T00:19:18;13.00;99.90
77829;DHT22;67019;51.034;3.728;2023-11-19T00:21:47;13.10;99.90
77829;DHT22;67019;51.034;3.728;2023-11-19T00:24:15;13.00;99.90
77829;DHT22;67019;51.034;3.728;2023-11-19T00:26:44;13.10;99.90
77829;DHT22;67019;51.034;3.728;2023-11-19T00:29:12;13.10;99.90
77829;DHT22;67019;51.034;3.728;2023-11-19T00:31:40;13.10;99.90
77829;DHT22;67019;51.034;3.728;2023-11-19T00:34:07;13.20;99.90
77829;DHT22;67019;51.034;3.728;2023-11-19T00:36:35;13.20;99.90
77829;DHT22;67019;51.034;3.728;2023-11-19T00:39:03;13.10;99.90
77829;DHT22;67019;51.034;3.728;2023-11-19T00:41:32;13.00;99.90
77829;DHT22;67019;51.034;3.728;2023-11-19T00:43:59;13.10;99.90
77829;DHT22;67019;51.034;3.728;2023-11-19T00:46:27;13.00;99.90
77829;DHT22;67019;51.034;3.728;2023-11-19T00:48:55;13.00;99.90
77829;DHT22;67019;51.034;3.728;2023-11-19T00:51:24;12.90;99.90
77829;DHT22;67019;51.034;3.728;2023-11-19T00:53:53;12.90;99.90
77829;DHT22;67019;51.034;3.728;2023-11-19T00:56:24;12.90;99.90
77829;DHT22;67019;51.034;3.728;2023-11-19T00:58:52;12.80;99.90
77829;DHT22;67019;51.034;3.728;2023-11-19T01:01:19;12.80;99.90
77829;DHT22;67019;51.034;3.728;2023-11-19T01:03:47;12.80;99.90
77829;DHT22;67019;51.034;3.728;2023-11-19T01:06:15;12.80;99.90
77829;DHT22;67019;51.034;3.728;2023-11-19T01:08:45;12.80;99.90
77829;DHT22;67019;51.034;3.728;2023-11-19T01:11:22;12.70;99.90
77829;DHT22;67019;51.034;3.728;2023-11-19T01:13:50;12.80;99.90
77829;DHT22;67019;51.034;3.728;2023-11-19T01:16:18;12.80;99.90
77829;DHT22;67019;51.034;3.728;2023-11-19T01:18:49;12.80;99.90
77829;DHT22;67019;51.034;3.728;2023-11-19T01:21:17;12.80;99.90
77829;DHT22;67019;51.034;3.728;2023-11-19T01:23:44;12.80;99.90
77829;DHT22;67019;51.034;3.728;2023-11-19T01:26:13;12.80;99.90
77829;DHT22;67019;51.034;3.728;2023-11-19T01:28:41;12.80;99.90
77829;DHT22;67019;51.034;3.728;2023-11-19T01:31:11;12.80;99.90
77829;DHT22;67019;51.034;3.728;2023-11-19T01:33:40;12.70;99.90
77829;DHT22;67019;51.034;3.728;2023-11-19T01:36:08;12.70;99.90
77829;DHT22;67019;51.034;3.728;2023-11-19T01:38:37;12.70;99.90
77829;DHT22;67019;51.034;3.728;2023-11-19T01:41:04;12.60;99.90
77829;DHT22;67019;51.034;3.728;2023-11-19T01:43:40;12.50;99.90
77829;DHT22;67019;51.034;3.728;2023-11-19T01:46:06;12.50;99.90
77829;DHT22;67019;51.034;3.728;2023-11-19T01:48:37;12.50;99.90
77829;DHT22;67019;51.034;3.728;2023-11-19T01:51:07;12.50;99.90
77829;DHT22;67019;51.034;3.728;2023-11-19T01:53:37;12.40;99.90
77829;DHT22;67019;51.034;3.728;2023-11-19T01:56:08;12.40;99.90
77829;DHT22;67019;51.034;3.728;2023-11-19T01:58:37;12.30;99.90
77829;DHT22;67019;51.034;3.728;2023-11-19T02:01:06;12.30;99.90
77829;DHT22;67019;51.034;3.728;2023-11-19T02:03:34;12.30;99.90
77829;DHT22;67019;51.034;3.728;2023-11-19T02:06:03;12.20;99.90
77829;DHT22;67019;51.034;3.728;2023-11-19T02:08:31;12.20;99.90
77829;DHT22;67019;51.034;3.728;2023-11-19T02:11:00;12.20;99.90
77829;DHT22;67019;51.034;3.728;2023-11-19T02:13:28;12.20;99.90
77829;DHT22;67019;51.034;3.728;2023-11-19T02:15:56;12.20;99.90
77829;DHT22;67019;51.034;3.728;2023-11-19T02:18:27;12.20;99.90
77829;DHT22;67019;51.034;3.728;2023-11-19T02:21:00;12.10;99.90
77829;DHT22;67019;51.034;3.728;2023-11-19T02:23:27;12.20;99.90
77829;DHT22;67019;51.034;3.728;2023-11-19T02:28:25;12.20;99.90
77829;DHT22;67019;51.034;3.728;2023-11-19T02:30:53;12.20;99.90
77829;DHT22;67019;51.034;3.728;2023-11-19T02:33:21;12.30;99.90
77829;DHT22;67019;51.034;3.728;2023-11-19T02:35:49;12.20;99.90
77829;DHT22;67019;51.034;3.728;2023-11-19T02:38:17;12.20;99.90
77829;DHT22;67019;51.034;3.728;2023-11-19T02:40:45;12.20;99.90
77829;DHT22;67019;51.034;3.728;2023-11-19T02:43:15;12.20;99.90
77829;DHT22;67019;51.034;3.728;2023-11-19T02:45:42;12.20;99.90
77829;DHT22;67019;51.034;3.728;2023-11-19T02:48:11;12.20;99.90
77829;DHT22;67019;51.034;3.728;2023-11-19T02:50:41;12.20;99.90
77829;DHT22;67019;51.034;3.728;2023-11-19T02:53:08;12.20;99.90
77829;DHT22;67019;51.034;3.728;2023-11-19T02:55:37;12.00;99.90
77829;DHT22;67019;51.034;3.728;2023-11-19T02:58:05;12.10;99.90
77829;DHT22;67019;51.034;3.728;2023-11-19T03:00:39;12.10;99.90
77829;DHT22;67019;51.034;3.728;2023-11-19T03:03:09;12.10;99.90
77829;DHT22;67019;51.034;3.728;2023-11-19T03:05:38;12.30;99.90
77829;DHT22;67019;51.034;3.728;2023-11-19T03:08:07;12.10;99.90
77829;DHT22;67019;51.034;3.728;2023-11-19T03:10:34;12.20;99.90
77829;DHT22;67019;51.034;3.728;2023-11-19T03:13:02;12.20;99.90
77829;DHT22;67019;51.034;3.728;2023-11-19T03:15:30;12.20;99.90
77829;DHT22;67019;51.034;3.728;2023-11-19T03:17:57;12.10;99.90
77829;DHT22;67019;51.034;3.728;2023-11-19T03:20:25;12.00;99.90
77829;DHT22;67019;51.034;3.728;2023-11-19T03:22:54;12.00;99.90
77829;DHT22;67019;51.034;3.728;2023-11-19T03:25:21;11.90;99.90
77829;DHT22;67019;51.034;3.728;2023-11-19T03:27:49;11.90;99.90
77829;DHT22;67019;51.034;3.728;2023-11-19T03:30:17;11.90;99.90
77829;DHT22;67019;51.034;3.728;2023-11-19T03:32:44;11.80;99.90
77829;DHT22;67019;51.034;3.728;2023-11-19T03:35:12;11.90;99.90
77829;DHT22;67019;51.034;3.728;2023-11-19T03:37:39;11.80;99.90
77829;DHT22;67019;51.034;3.728;2023-11-19T03:40:07;11.70;99.90
77829;DHT22;67019;51.034;3.728;2023-11-19T03:42:35;11.70;99.90
77829;DHT22;67019;51.034;3.728;2023-11-19T03:45:03;11.70;99.90
77829;DHT22;67019;51.034;3.728;2023-11-19T03:47:31;11.60;99.90
77829;DHT22;67019;51.034;3.728;2023-11-19T03:50:00;11.80;99.90
77829;DHT22;67019;51.034;3.728;2023-11-19T03:52:29;11.80;99.90
77829;DHT22;67019;51.034;3.728;2023-11-19T03:54:56;11.70;99.90
77829;DHT22;67019;51.034;3.728;2023-11-19T03:57:24;11.70;99.90
77829;DHT22;67019;51.034;3.728;2023-11-19T03:59:52;11.60;99.90
77829;DHT22;67019;51.034;3.728;2023-11-19T04:02:19;11.70;99.90
77829;DHT22;67019;51.034;3.728;2023-11-19T04:04:47;11.70;99.90
77829;DHT22;67019;51.034;3.728;2023-11-19T04:07:15;11.60;99.90
77829;DHT22;67019;51.034;3.728;2023-11-19T04:09:42;11.60;99.90
77829;DHT22;67019;51.034;3.728;2023-11-19T04:12:10;11.60;99.90
77829;DHT22;67019;51.034;3.728;2023-11-19T04:14:38;11.60;99.90
77829;DHT22;67019;51.034;3.728;2023-11-19T04:17:07;11.70;99.90
77829;DHT22;67019;51.034;3.728;2023-11-19T04:19:34;11.70;99.90
77829;DHT22;67019;51.034;3.728;2023-11-19T04:22:02;11.60;99.90
77829;DHT22;67019;51.034;3.728;2023-11-19T04:24:29;11.40;99.90
77829;DHT22;67019;51.034;3.728;2023-11-19T04:26:57;11.40;99.90
77829;DHT22;67019;51.034;3.728;2023-11-19T04:29:27;11.40;99.90
77829;DHT22;67019;51.034;3.728;2023-11-19T04:31:54;11.30;99.90
77829;DHT22;67019;51.034;3.728;2023-11-19T04:34:23;11.20;99.90
77829;DHT22;67019;51.034;3.728;2023-11-19T04:36:50;11.20;99.90
77829;DHT22;67019;51.034;3.728;2023-11-19T04:39:18;11.20;99.90
77829;DHT22;67019;51.034;3.728;2023-11-19T04:41:49;11.30;99.90
77829;DHT22;67019;51.034;3.728;2023-11-19T04:44:17;11.30;99.90
77829;DHT22;67019;51.034;3.728;2023-11-19T04:46:44;11.30;99.90
77829;DHT22;67019;51.034;3.728;2023-11-19T04:49:13;11.20;99.90
77829;DHT22;67019;51.034;3.728;2023-11-19T04:51:41;11.30;99.90
77829;DHT22;67019;51.034;3.728;2023-11-19T04:54:10;11.40;99.90
77829;DHT22;67019;51.034;3.728;2023-11-19T04:56:37;11.20;99.90
77829;DHT22;67019;51.034;3.728;2023-11-19T04:59:06;11.10;99.90
77829;DHT22;67019;51.034;3.728;2023-11-19T05:01:34;11.00;99.90
77829;DHT22;67019;51.034;3.728;2023-11-19T05:04:02;11.00;99.90
77829;DHT22;67019;51.034;3.728;2023-11-19T05:06:30;10.90;99.90
77829;DHT22;67019;51.034;3.728;2023-11-19T05:09:01;11.00;99.90
77829;DHT22;67019;51.034;3.728;2023-11-19T05:11:30;11.00;99.90
77829;DHT22;67019;51.034;3.728;2023-11-19T05:13:58;11.00;99.90
77829;DHT22;67019;51.034;3.728;2023-11-19T05:16:26;11.00;99.90
77829;DHT22;67019;51.034;3.728;2023-11-19T05:18:54;10.90;99.90
77829;DHT22;67019;51.034;3.728;2023-11-19T05:21:22;10.80;99.90
77829;DHT22;67019;51.034;3.728;2023-11-19T05:23:50;10.80;99.90
77829;DHT22;67019;51.034;3.728;2023-11-19T05:26:23;11.00;99.90
77829;DHT22;67019;51.034;3.728;2023-11-19T05:28:48;11.10;99.90
77829;DHT22;67019;51.034;3.728;2023-11-19T05:31:16;10.90;99.90
77829;DHT22;67019;51.034;3.728;2023-11-19T05:33:44;10.70;99.90
77829;DHT22;67019;51.034;3.728;2023-11-19T05:36:12;10.90;99.90
77829;DHT22;67019;51.034;3.728;2023-11-19T05:38:40;10.90;99.90
77829;DHT22;67019;51.034;3.728;2023-11-19T05:41:08;10.90;99.90
77829;DHT22;67019;51.034;3.728;2023-11-19T05:43:35;10.80;99.90
77829;DHT22;67019;51.034;3.728;2023-11-19T05:46:04;10.80;99.90
77829;DHT22;67019;51.034;3.728;2023-11-19T05:48:33;10.80;99.90
77829;DHT22;67019;51.034;3.728;2023-11-19T05:51:01;10.80;99.90
77829;DHT22;67019;51.034;3.728;2023-11-19T05:53:29;10.70;99.90
77829;DHT22;67019;51.034;3.728;2023-11-19T05:55:57;12.60;99.90
77829;DHT22;67019;51.034;3.728;2023-11-19T05:58:25;10.70;99.90
77829;DHT22;67019;51.034;3.728;2023-11-19T06:00:58;10.50;99.90
77829;DHT22;67019;51.034;3.728;2023-11-19T06:03:27;10.60;99.90
77829;DHT22;67019;51.034;3.728;2023-11-19T06:05:55;10.70;99.90
77829;DHT22;67019;51.034;3.728;2023-11-19T06:08:22;10.70;99.90
77829;DHT22;67019;51.034;3.728;2023-11-19T06:10:52;10.70;99.90
77829;DHT22;67019;51.034;3.728;2023-11-19T06:13:19;10.70;99.90
77829;DHT22;67019;51.034;3.728;2023-11-19T06:15:48;10.70;99.90
77829;DHT22;67019;51.034;3.728;2023-11-19T06:18:17;10.70;99.90
77829;DHT22;67019;51.034;3.728;2023-11-19T06:20:46;10.60;99.90
77829;DHT22;67019;51.034;3.728;2023-11-19T06:23:14;10.70;99.90
77829;DHT22;67019;51.034;3.728;2023-11-19T06:25:41;10.60;99.90
77829;DHT22;67019;51.034;3.728;2023-11-19T06:28:09;10.70;99.90
77829;DHT22;67019;51.034;3.728;2023-11-19T06:30:37;10.50;99.90
77829;DHT22;67019;51.034;3.728;2023-11-19T06:33:04;10.50;99.90
77829;DHT22;67019;51.034;3.728;2023-11-19T06:35:32;10.50;99.90
77829;DHT22;67019;51.034;3.728;2023-11-19T06:38:02;10.60;99.90
77829;DHT22;67019;51.034;3.728;2023-11-19T06:40:34;10.50;99.90
77829;DHT22;67019;51.034;3.728;2023-11-19T06:43:04;10.50;99.90
77829;DHT22;67019;51.034;3.728;2023-11-19T06:45:34;10.70;99.90
77829;DHT22;67019;51.034;3.728;2023-11-19T06:48:03;10.60;99.90
77829;DHT22;67019;51.034;3.728;2023-11-19T06:50:34;10.50;99.90
77829;DHT22;67019;51.034;3.728;2023-11-19T06:53:03;10.40;99.90
77829;DHT22;67019;51.034;3.728;2023-11-19T06:55:32;10.40;99.90
77829;DHT22;67019;51.034;3.728;2023-11-19T06:58:00;10.30;99.90
77829;DHT22;67019;51.034;3.728;2023-11-19T07:00:29;10.30;99.90
77829;DHT22;67019;51.034;3.728;2023-11-19T07:02:59;10.30;99.90
77829;DHT22;67019;51.034;3.728;2023-11-19T07:05:26;10.60;99.90
77829;DHT22;67019;51.034;3.728;2023-11-19T07:07:54;10.40;99.90
77829;DHT22;67019;51.034;3.728;2023-11-19T07:10:22;10.40;99.90
77829;DHT22;67019;51.034;3.728;2023-11-19T07:12:49;10.40;99.90
77829;DHT22;67019;51.034;3.728;2023-11-19T07:15:17;10.40;99.90
77829;DHT22;67019;51.034;3.728;2023-11-19T07:17:45;10.40;99.90
77829;DHT22;67019;51.034;3.728;2023-11-19T07:20:19;10.50;99.90
77829;DHT22;67019;51.034;3.728;2023-11-19T07:22:44;10.40;99.90
77829;DHT22;67019;51.034;3.728;2023-11-19T07:25:15;10.60;99.90
77829;DHT22;67019;51.034;3.728;2023-11-19T07:27:43;10.60;99.90
77829;DHT22;67019;51.034;3.728;2023-11-19T07:30:11;10.60;99.90
77829;DHT22;67019;51.034;3.728;2023-11-19T07:32:38;10.70;99.90
77829;DHT22;67019;51.034;3.728;2023-11-19T07:35:11;10.80;99.90
77829;DHT22;67019;51.034;3.728;2023-11-19T07:37:36;10.90;99.90
77829;DHT22;67019;51.034;3.728;2023-11-19T07:40:04;10.80;99.90
77829;DHT22;67019;51.034;3.728;2023-11-19T07:42:32;11.00;99.90
77829;DHT22;67019;51.034;3.728;2023-11-19T07:45:00;10.90;99.90
77829;DHT22;67019;51.034;3.728;2023-11-19T07:47:27;10.90;99.90
77829;DHT22;67019;51.034;3.728;2023-11-19T07:49:55;10.90;99.90
77829;DHT22;67019;51.034;3.728;2023-11-19T07:52:23;11.00;99.90
77829;DHT22;67019;51.034;3.728;2023-11-19T07:54:50;11.00;99.90
77829;DHT22;67019;51.034;3.728;2023-11-19T07:57:18;11.10;99.90
77829;DHT22;67019;51.034;3.728;2023-11-19T07:59:47;11.10;99.90
77829;DHT22;67019;51.034;3.728;2023-11-19T08:02:14;11.20;99.90
77829;DHT22;67019;51.034;3.728;2023-11-19T08:04:42;11.10;99.90
77829;DHT22;67019;51.034;3.728;2023-11-19T08:07:11;11.00;99.90
77829;DHT22;67019;51.034;3.728;2023-11-19T08:09:39;11.10;99.90
77829;DHT22;67019;51.034;3.728;2023-11-19T08:12:07;11.10;99.90
77829;DHT22;67019;51.034;3.728;2023-11-19T08:14:37;11.10;99.90
77829;DHT22;67019;51.034;3.728;2023-11-19T08:17:07;11.00;99.90
77829;DHT22;67019;51.034;3.728;2023-11-19T08:19:34;11.30;99.90
77829;DHT22;67019;51.034;3.728;2023-11-19T08:22:02;10.90;99.90
77829;DHT22;67019;51.034;3.728;2023-11-19T08:24:30;10.90;99.90
77829;DHT22;67019;51.034;3.728;2023-11-19T08:26:57;10.90;99.90
77829;DHT22;67019;51.034;3.728;2023-11-19T08:29:25;11.00;99.90
77829;DHT22;67019;51.034;3.728;2023-11-19T08:31:54;11.00;99.90
77829;DHT22;67019;51.034;3.728;2023-11-19T08:34:21;11.10;99.90
77829;DHT22;67019;51.034;3.728;2023-11-19T08:36:54;11.20;99.90
77829;DHT22;67019;51.034;3.728;2023-11-19T08:39:22;11.40;99.90
77829;DHT22;67019;51.034;3.728;2023-11-19T08:41:50;11.50;99.90
77829;DHT22;67019;51.034;3.728;2023-11-19T08:44:18;11.60;99.90
77829;DHT22;67019;51.034;3.728;2023-11-19T08:46:49;11.70;99.90
77829;DHT22;67019;51.034;3.728;2023-11-19T08:49:17;11.80;99.90
77829;DHT22;67019;51.034;3.728;2023-11-19T08:51:44;11.80;99.90
77829;DHT22;67019;51.034;3.728;2023-11-19T08:54:13;11.80;99.90
77829;DHT22;67019;51.034;3.728;2023-11-19T08:56:41;11.80;99.90
77829;DHT22;67019;51.034;3.728;2023-11-19T08:59:13;11.90;99.90
77829;DHT22;67019;51.034;3.728;2023-11-19T09:01:43;11.90;99.90
77829;DHT22;67019;51.034;3.728;2023-11-19T09:04:10;12.00;99.90
77829;DHT22;67019;51.034;3.728;2023-11-19T09:06:38;12.00;99.90
77829;DHT22;67019;51.034;3.728;2023-11-19T09:09:06;12.00;99.90
77829;DHT22;67019;51.034;3.728;2023-11-19T09:11:36;12.00;99.90
77829;DHT22;67019;51.034;3.728;2023-11-19T09:14:04;12.00;99.90
77829;DHT22;67019;51.034;3.728;2023-11-19T09:16:33;12.10;99.90
77829;DHT22;67019;51.034;3.728;2023-11-19T09:19:01;12.20;99.90
77829;DHT22;67019;51.034;3.728;2023-11-19T09:21:29;12.20;99.90
77829;DHT22;67019;51.034;3.728;2023-11-19T09:23:57;12.30;99.90
77829;DHT22;67019;51.034;3.728;2023-11-19T09:26:24;12.20;99.90
77829;DHT22;67019;51.034;3.728;2023-11-19T09:28:52;12.10;99.90
77829;DHT22;67019;51.034;3.728;2023-11-19T09:31:19;11.90;99.90
77829;DHT22;67019;51.034;3.728;2023-11-19T09:33:47;11.70;99.90
77829;DHT22;67019;51.034;3.728;2023-11-19T09:36:16;11.60;99.90
77829;DHT22;67019;51.034;3.728;2023-11-19T09:38:45;11.40;99.90
77829;DHT22;67019;51.034;3.728;2023-11-19T09:41:13;11.40;99.90
77829;DHT22;67019;51.034;3.728;2023-11-19T09:43:41;11.40;99.90
77829;DHT22;67019;51.034;3.728;2023-11-19T09:46:10;11.50;99.90
77829;DHT22;67019;51.034;3.728;2023-11-19T09:48:38;11.70;99.90
77829;DHT22;67019;51.034;3.728;2023-11-19T09:51:08;11.80;99.90
77829;DHT22;67019;51.034;3.728;2023-11-19T09:53:36;12.00;99.90
77829;DHT22;67019;51.034;3.728;2023-11-19T09:56:07;12.20;99.90
77829;DHT22;67019;51.034;3.728;2023-11-19T09:58:35;12.20;99.90
77829;DHT22;67019;51.034;3.728;2023-11-19T10:01:03;12.00;99.90
77829;DHT22;67019;51.034;3.728;2023-11-19T10:03:34;12.00;99.90
77829;DHT22;67019;51.034;3.728;2023-11-19T10:06:04;12.00;99.90
77829;DHT22;67019;51.034;3.728;2023-11-19T10:08:34;11.90;99.90
77829;DHT22;67019;51.034;3.728;2023-11-19T10:11:01;11.90;99.90
77829;DHT22;67019;51.034;3.728;2023-11-19T10:13:31;11.90;99.90
77829;DHT22;67019;51.034;3.728;2023-11-19T10:15:58;11.70;99.90
77829;DHT22;67019;51.034;3.728;2023-11-19T10:18:27;11.60;99.90
77829;DHT22;67019;51.034;3.728;2023-11-19T10:20:54;11.50;99.90
77829;DHT22;67019;51.034;3.728;2023-11-19T10:23:22;11.50;99.90
77829;DHT22;67019;51.034;3.728;2023-11-19T10:25:52;11.50;99.90
77829;DHT22;67019;51.034;3.728;2023-11-19T10:28:20;11.60;99.90
77829;DHT22;67019;51.034;3.728;2023-11-19T10:30:48;11.60;99.90
77829;DHT22;67019;51.034;3.728;2023-11-19T10:33:16;11.80;99.90
77829;DHT22;67019;51.034;3.728;2023-11-19T10:35:57;11.80;99.90
77829;DHT22;67019;51.034;3.728;2023-11-19T10:38:26;11.80;99.90
77829;DHT22;67019;51.034;3.728;2023-11-19T10:40:54;11.80;99.90
77829;DHT22;67019;51.034;3.728;2023-11-19T10:43:22;11.80;99.90
77829;DHT22;67019;51.034;3.728;2023-11-19T10:45:52;11.80;99.90
77829;DHT22;67019;51.034;3.728;2023-11-19T10:48:19;11.80;99.90
77829;DHT22;67019;51.034;3.728;2023-11-19T10:50:53;11.90;99.90
77829;DHT22;67019;51.034;3.728;2023-11-19T10:53:23;11.90;99.90
77829;DHT22;67019;51.034;3.728;2023-11-19T10:55:53;12.00;99.90
77829;DHT22;67019;51.034;3.728;2023-11-19T10:58:23;12.10;99.90
77829;DHT22;67019;51.034;3.728;2023-11-19T11:00:59;12.20;99.90
77829;DHT22;67019;51.034;3.728;2023-11-19T11:03:29;12.20;99.90
77829;DHT22;67019;51.034;3.728;2023-11-19T11:05:57;12.40;99.90
77829;DHT22;67019;51.034;3.728;2023-11-19T11:08:24;12.40;99.90
77829;DHT22;67019;51.034;3.728;2023-11-19T11:10:55;12.50;99.90
77829;DHT22;67019;51.034;3.728;2023-11-19T11:13:25;12.60;99.90
77829;DHT22;67019;51.034;3.728;2023-11-19T11:15:53;12.60;99.90
77829;DHT22;67019;51.034;3.728;2023-11-19T11:18:22;12.70;99.90
77829;DHT22;67019;51.034;3.728;2023-11-19T11:21:04;12.90;99.90
77829;DHT22;67019;51.034;3.728;2023-11-19T11:23:39;13.10;99.90
77829;DHT22;67019;51.034;3.728;2023-11-19T11:26:14;13.30;99.90
77829;DHT22;67019;51.034;3.728;2023-11-19T11:28:56;13.00;99.90
77829;DHT22;67019;51.034;3.728;2023-11-19T11:34:41;12.70;99.90
77829;DHT22;67019;51.034;3.728;2023-11-19T11:37:19;12.40;99.90
77829;DHT22;67019;51.034;3.728;2023-11-19T11:39:50;12.30;99.90
77829;DHT22;67019;51.034;3.728;2023-11-19T11:48:16;12.10;99.90
77829;DHT22;67019;51.034;3.728;2023-11-19T12:00:11;11.90;99.90
77829;DHT22;67019;51.034;3.728;2023-11-19T12:02:40;12.00;99.90
77829;DHT22;67019;51.034;3.728;2023-11-19T12:05:08;12.00;99.90
77829;DHT22;67019;51.034;3.728;2023-11-19T12:07:38;11.80;99.90
77829;DHT22;67019;51.034;3.728;2023-11-19T12:10:09;11.90;99.90
77829;DHT22;67019;51.034;3.728;2023-11-19T12:12:41;11.90;99.90
77829;DHT22;67019;51.034;3.728;2023-11-19T12:15:09;12.10;99.90
77829;DHT22;67019;51.034;3.728;2023-11-19T12:17:48;12.30;99.90
77829;DHT22;67019;51.034;3.728;2023-11-19T12:20:21;12.40;99.90
77829;DHT22;67019;51.034;3.728;2023-11-19T12:22:49;12.50;99.90
77829;DHT22;67019;51.034;3.728;2023-11-19T12:25:17;12.50;99.90
77829;DHT22;67019;51.034;3.728;2023-11-19T12:27:52;12.50;99.90
77829;DHT22;67019;51.034;3.728;2023-11-19T12:30:24;12.40;99.90
77829;DHT22;67019;51.034;3.728;2023-11-19T12:32:53;12.40;99.90
77829;DHT22;67019;51.034;3.728;2023-11-19T12:35:21;12.40;99.90
77829;DHT22;67019;51.034;3.728;2023-11-19T12:37:50;12.30;99.90
77829;DHT22;67019;51.034;3.728;2023-11-19T12:40:19;12.20;99.90
77829;DHT22;67019;51.034;3.728;2023-11-19T12:42:48;12.10;99.90
77829;DHT22;67019;51.034;3.728;2023-11-19T12:45:16;12.10;99.90
77829;DHT22;67019;51.034;3.728;2023-11-19T12:47:46;12.00;99.90
77829;DHT22;67019;51.034;3.728;2023-11-19T12:50:18;12.00;99.90
77829;DHT22;67019;51.034;3.728;2023-11-19T12:56:23;12.10;99.90
77829;DHT22;67019;51.034;3.728;2023-11-19T12:59:11;12.00;99.90
77829;DHT22;67019;51.034;3.728;2023-11-19T13:01:39;12.00;99.90
77829;DHT22;67019;51.034;3.728;2023-11-19T13:04:18;12.10;99.90
77829;DHT22;67019;51.034;3.728;2023-11-19T13:06:46;12.10;99.90
77829;DHT22;67019;51.034;3.728;2023-11-19T13:09:28;12.20;99.90
77829;DHT22;67019;51.034;3.728;2023-11-19T13:11:56;12.20;99.90
77829;DHT22;67019;51.034;3.728;2023-11-19T13:14:36;12.20;99.90
77829;DHT22;67019;51.034;3.728;2023-11-19T13:16:54;12.30;99.90
77829;DHT22;67019;51.034;3.728;2023-11-19T13:19:22;12.30;99.90
77829;DHT22;67019;51.034;3.728;2023-11-19T13:21:51;12.40;99.90
77829;DHT22;67019;51.034;3.728;2023-11-19T13:24:19;12.40;99.90
77829;DHT22;67019;51.034;3.728;2023-11-19T13:26:47;12.50;99.90
77829;DHT22;67019;51.034;3.728;2023-11-19T13:29:14;12.60;99.90
77829;DHT22;67019;51.034;3.728;2023-11-19T13:31:42;12.40;99.90
77829;DHT22;67019;51.034;3.728;2023-11-19T13:34:11;12.50;99.90
77829;DHT22;67019;51.034;3.728;2023-11-19T13:36:38;12.40;99.90
77829;DHT22;67019;51.034;3.728;2023-11-19T13:39:06;12.40;99.90
77829;DHT22;67019;51.034;3.728;2023-11-19T13:41:34;12.40;99.90
77829;DHT22;67019;51.034;3.728;2023-11-19T13:44:01;12.40;99.90
77829;DHT22;67019;51.034;3.728;2023-11-19T13:46:29;12.40;99.90
77829;DHT22;67019;51.034;3.728;2023-11-19T13:48:57;12.40;99.90
77829;DHT22;67019;51.034;3.728;2023-11-19T13:51:26;12.40;99.90
77829;DHT22;67019;51.034;3.728;2023-11-19T13:53:54;11.90;99.90
77829;DHT22;67019;51.034;3.728;2023-11-19T13:56:24;12.00;99.90
77829;DHT22;67019;51.034;3.728;2023-11-19T13:58:51;11.80;99.90
77829;DHT22;67019;51.034;3.728;2023-11-19T14:01:24;11.70;99.90
77829;DHT22;67019;51.034;3.728;2023-11-19T14:03:52;11.50;99.90
77829;DHT22;67019;51.034;3.728;2023-11-19T14:13:18;11.50;99.90
77829;DHT22;67019;51.034;3.728;2023-11-19T14:22:45;11.50;99.90
77829;DHT22;67019;51.034;3.728;2023-11-19T14:29:17;11.40;99.90
77829;DHT22;67019;51.034;3.728;2023-11-19T14:31:48;11.50;99.90
77829;DHT22;67019;51.034;3.728;2023-11-19T14:34:13;11.60;99.90
77829;DHT22;67019;51.034;3.728;2023-11-19T14:50:27;11.90;99.90
77829;DHT22;67019;51.034;3.728;2023-11-19T15:02:50;12.10;99.90
77829;DHT22;67019;51.034;3.728;2023-11-19T15:05:18;11.90;99.90
77829;DHT22;67019;51.034;3.728;2023-11-19T15:07:51;12.00;99.90
77829;DHT22;67019;51.034;3.728;2023-11-19T15:10:17;12.00;99.90
77829;DHT22;67019;51.034;3.728;2023-11-19T15:12:45;11.90;99.90
77829;DHT22;67019;51.034;3.728;2023-11-19T15:15:14;11.90;99.90
77829;DHT22;67019;51.034;3.728;2023-11-19T15:17:42;11.90;99.90
77829;DHT22;67019;51.034;3.728;2023-11-19T15:20:10;11.90;99.90
77829;DHT22;67019;51.034;3.728;2023-11-19T15:22:40;11.90;99.90
77829;DHT22;67019;51.034;3.728;2023-11-19T15:25:08;11.70;99.90
77829;DHT22;67019;51.034;3.728;2023-11-19T15:27:37;11.50;99.90
77829;DHT22;67019;51.034;3.728;2023-11-19T15:30:10;11.30;99.90
77829;DHT22;67019;51.034;3.728;2023-11-19T15:56:16;11.40;99.90
77829;DHT22;67019;51.034;3.728;2023-11-19T15:58:43;11.50;99.90
77829;DHT22;67019;51.034;3.728;2023-11-19T16:01:17;11.50;99.90
77829;DHT22;67019;51.034;3.728;2023-11-19T16:03:42;11.50;99.90
77829;DHT22;67019;51.034;3.728;2023-11-19T16:06:11;11.40;99.90
77829;DHT22;67019;51.034;3.728;2023-11-19T16:08:38;11.50;99.90
77829;DHT22;67019;51.034;3.728;2023-11-19T16:11:20;11.50;99.90
77829;DHT22;67019;51.034;3.728;2023-11-19T16:13:42;11.50;99.90
77829;DHT22;67019;51.034;3.728;2023-11-19T16:16:11;11.60;99.90
77829;DHT22;67019;51.034;3.728;2023-11-19T16:18:39;11.50;99.90
77829;DHT22;67019;51.034;3.728;2023-11-19T16:21:08;11.60;99.90
77829;DHT22;67019;51.034;3.728;2023-11-19T16:23:40;11.50;99.90
77829;DHT22;67019;51.034;3.728;2023-11-19T16:26:05;11.50;99.90
77829;DHT22;67019;51.034;3.728;2023-11-19T16:28:34;11.50;99.90
77829;DHT22;67019;51.034;3.728;2023-11-19T16:31:02;11.50;99.90
77829;DHT22;67019;51.034;3.728;2023-11-19T16:33:32;11.50;99.90
77829;DHT22;67019;51.034;3.728;2023-11-19T16:36:02;9.90;99.90
77829;DHT22;67019;51.034;3.728;2023-11-19T16:38:30;11.50;99.90
77829;DHT22;67019;51.034;3.728;2023-11-19T16:40:58;11.50;99.90
77829;DHT22;67019;51.034;3.728;2023-11-19T16:43:25;11.50;99.90
77829;DHT22;67019;51.034;3.728;2023-11-19T16:45:57;11.50;99.90
77829;DHT22;67019;51.034;3.728;2023-11-19T16:48:26;11.50;99.90
77829;DHT22;67019;51.034;3.728;2023-11-19T16:50:54;11.50;99.90
77829;DHT22;67019;51.034;3.728;2023-11-19T16:53:24;11.40;99.90
77829;DHT22;67019;51.034;3.728;2023-11-19T16:55:52;11.30;99.90
77829;DHT22;67019;51.034;3.728;2023-11-19T16:58:20;11.30;99.90
77829;DHT22;67019;51.034;3.728;2023-11-19T17:00:49;11.20;99.90
77829;DHT22;67019;51.034;3.728;2023-11-19T17:03:17;11.20;99.90
77829;DHT22;67019;51.034;3.728;2023-11-19T17:05:44;11.20;99.90
77829;DHT22;67019;51.034;3.728;2023-11-19T17:08:12;11.10;99.90
77829;DHT22;67019;51.034;3.728;2023-11-19T17:10:40;11.10;99.90